createdAt,value
2023-11-12T00:01:59.598Z,6.50
2023-11-12T00:04:27.817Z,6.46
2023-11-12T00:06:55.998Z,6.40
2023-11-12T00:09:25.411Z,6.36
2023-11-12T00:11:54.951Z,6.33
2023-11-12T00:14:23.205Z,6.36
2023-11-12T00:16:51.457Z,6.29
2023-11-12T00:19:19.780Z,6.37
2023-11-12T00:21:48.344Z,6.37
2023-11-12T00:24:18.826Z,6.38
2023-11-12T00:26:47.149Z,6.36
2023-11-12T00:29:17.340Z,6.35
2023-11-12T00:31:45.645Z,6.36
2023-11-12T00:34:14.124Z,6.47
2023-11-12T00:36:43.948Z,6.40
2023-11-12T00:39:12.695Z,6.33
2023-11-12T00:41:41.715Z,6.36
2023-11-12T00:44:12.167Z,6.40
2023-11-12T00:46:43.820Z,6.36
2023-11-12T00:49:12.222Z,6.20
2023-11-12T00:51:40.921Z,6.39
2023-11-12T00:54:09.155Z,6.38
2023-11-12T00:56:37.463Z,6.44
2023-11-12T00:59:06.736Z,6.34
2023-11-12T01:01:35.601Z,6.32
2023-11-12T01:04:05.734Z,6.34
2023-11-12T01:06:34.764Z,6.43
2023-11-12T01:09:03.039Z,6.39
2023-11-12T01:11:31.263Z,6.47
2023-11-12T01:13:59.486Z,6.45
2023-11-12T01:16:30.528Z,6.42
2023-11-12T01:18:59.975Z,6.35
2023-11-12T01:21:29.710Z,6.40
2023-11-12T01:23:58.020Z,6.29
2023-11-12T01:26:26.236Z,6.20
2023-11-12T01:28:54.944Z,6.21
2023-11-12T01:31:24.499Z,6.12
2023-11-12T01:33:53.075Z,6.09
2023-11-12T01:36:21.960Z,6.28
2023-11-12T01:38:51.528Z,6.13
2023-11-12T01:41:20.053Z,6.11
2023-11-12T01:43:48.292Z,6.12
2023-11-12T01:46:16.713Z,5.98
2023-11-12T01:48:45.246Z,6.14
2023-11-12T01:51:14.639Z,6.14
2023-11-12T01:53:43.087Z,6.37
2023-11-12T01:56:14.931Z,6.10
2023-11-12T01:58:44.411Z,6.32
2023-11-12T02:01:13.603Z,6.27
2023-11-12T02:03:44.084Z,6.43
2023-11-12T02:06:14.080Z,6.45
2023-11-12T02:08:42.501Z,6.52
2023-11-12T02:11:13.362Z,6.63
2023-11-12T02:13:44.076Z,6.58
2023-11-12T02:16:12.603Z,6.65
2023-11-12T02:18:46.172Z,6.43
2023-11-12T02:21:14.471Z,6.63
2023-11-12T02:23:44.020Z,6.66
2023-11-12T02:26:13.109Z,6.65
2023-11-12T02:28:41.304Z,6.52
2023-11-12T02:31:10.112Z,6.40
2023-11-12T02:33:39.943Z,6.59
2023-11-12T02:36:09.913Z,6.54
2023-11-12T02:38:38.159Z,6.31
2023-11-12T02:41:11.625Z,6.38
2023-11-12T02:43:40.099Z,6.27
2023-11-12T02:46:08.484Z,6.27
2023-11-12T02:48:52.200Z,6.39
2023-11-12T02:51:21.280Z,6.46
2023-11-12T02:53:49.495Z,6.53
2023-11-12T02:56:19.052Z,6.44
2023-11-12T02:58:47.264Z,6.43
2023-11-12T03:01:15.475Z,6.11
2023-11-12T03:03:43.976Z,6.30
2023-11-12T03:06:12.576Z,6.28
2023-11-12T03:08:42.615Z,6.36
2023-11-12T03:11:11.444Z,6.45
2023-11-12T03:13:40.980Z,6.53
2023-11-12T03:16:09.188Z,6.46
2023-11-12T03:18:37.573Z,6.42
2023-11-12T03:21:06.692Z,6.45
2023-11-12T03:23:36.356Z,6.17
2023-11-12T03:26:04.763Z,6.51
2023-11-12T03:28:32.950Z,6.50
2023-11-12T03:31:02.476Z,6.48
2023-11-12T03:33:30.682Z,6.58
2023-11-12T03:35:59.011Z,6.34
2023-11-12T03:38:27.435Z,6.38
2023-11-12T03:40:56.543Z,6.47
2023-11-12T03:43:24.749Z,6.38
2023-11-12T03:45:53.078Z,6.42
2023-11-12T03:48:22.763Z,6.52
2023-11-12T03:50:51.291Z,6.45
2023-11-12T03:53:19.684Z,6.45
2023-11-12T03:55:47.873Z,6.47
2023-11-12T03:58:16.121Z,6.52
2023-11-12T04:00:44.449Z,6.57
2023-11-12T04:03:12.910Z,6.56
2023-11-12T04:05:42.992Z,6.59
2023-11-12T04:08:11.228Z,6.51
2023-11-12T04:10:39.411Z,6.44
2023-11-12T04:13:07.720Z,6.28
2023-11-12T04:15:36.090Z,6.31
2023-11-12T04:18:04.546Z,6.43
2023-11-12T04:20:33.603Z,6.12
2023-11-12T04:23:03.160Z,6.27
2023-11-12T04:25:31.379Z,6.33
2023-11-12T04:27:59.625Z,6.26
2023-11-12T04:30:27.969Z,6.38
2023-11-12T04:32:56.221Z,6.35
2023-11-12T04:35:24.557Z,6.22
2023-11-12T04:37:53.068Z,6.38
2023-11-12T04:40:23.537Z,6.44
2023-11-12T04:42:52.000Z,6.21
2023-11-12T04:45:21.274Z,6.24
2023-11-12T04:47:49.867Z,6.32
2023-11-12T04:50:18.882Z,6.23
2023-11-12T04:52:48.171Z,6.18
2023-11-12T04:55:16.646Z,6.29
2023-11-12T04:57:46.320Z,6.14
2023-11-12T05:00:15.273Z,6.21
2023-11-12T05:02:46.074Z,6.27
2023-11-12T05:05:14.720Z,6.33
2023-11-12T05:07:43.019Z,6.31
2023-11-12T05:10:12.607Z,6.30
2023-11-12T05:12:40.930Z,6.32
2023-11-12T05:15:11.782Z,6.29
2023-11-12T05:17:40.173Z,6.36
2023-11-12T05:20:09.312Z,6.32
2023-11-12T05:22:38.282Z,6.18
2023-11-12T05:25:07.830Z,6.23
2023-11-12T05:27:36.300Z,6.23
2023-11-12T05:30:05.080Z,6.28
2023-11-12T05:32:34.948Z,6.21
2023-11-12T05:35:03.322Z,6.20
2023-11-12T05:37:31.554Z,6.33
2023-11-12T05:39:59.828Z,6.28
2023-11-12T05:42:28.122Z,6.25
2023-11-12T05:44:56.451Z,6.25
2023-11-12T05:47:25.022Z,6.29
2023-11-12T05:49:54.860Z,6.22
2023-11-12T05:52:23.913Z,6.25
2023-11-12T05:54:52.169Z,6.28
2023-11-12T05:57:21.375Z,6.12
2023-11-12T05:59:49.597Z,5.95
2023-11-12T06:02:17.829Z,5.95
2023-11-12T06:04:46.015Z,6.08
2023-11-12T06:07:15.622Z,6.07
2023-11-12T06:09:45.488Z,6.05
2023-11-12T06:12:13.713Z,6.10
2023-11-12T06:14:42.024Z,6.27
2023-11-12T06:17:10.312Z,6.22
2023-11-12T06:19:38.505Z,6.04
2023-11-12T06:22:06.854Z,5.89
2023-11-12T06:24:36.459Z,6.12
2023-11-12T06:27:04.975Z,6.17
2023-11-12T06:29:33.204Z,6.20
2023-11-12T06:32:01.572Z,6.29
2023-11-12T06:34:29.883Z,6.29
2023-11-12T06:36:59.723Z,6.27
2023-11-12T06:39:27.955Z,6.18
2023-11-12T06:41:57.560Z,6.11
2023-11-12T06:44:25.857Z,6.12
2023-11-12T06:46:54.104Z,6.32
2023-11-12T06:49:22.360Z,6.39
2023-11-12T06:51:50.884Z,6.40
2023-11-12T06:54:19.126Z,6.42
2023-11-12T06:56:47.334Z,6.05
2023-11-12T06:59:17.413Z,6.00
2023-11-12T07:01:46.800Z,6.41
2023-11-12T07:04:15.686Z,6.45
2023-11-12T07:06:57.371Z,6.42
2023-11-12T07:09:32.497Z,6.40
2023-11-12T07:12:01.111Z,6.47
2023-11-12T07:14:30.667Z,6.51
2023-11-12T07:16:58.893Z,6.46
2023-11-12T07:19:27.517Z,6.47
2023-11-12T07:21:55.846Z,6.57
2023-11-12T07:24:24.107Z,6.55
2023-11-12T07:26:52.406Z,6.40
2023-11-12T07:29:20.628Z,6.60
2023-11-12T07:31:50.190Z,6.56
2023-11-12T07:34:18.489Z,6.36
2023-11-12T07:36:46.771Z,6.32
2023-11-12T07:39:15.076Z,6.40
2023-11-12T07:41:43.698Z,6.62
2023-11-12T07:44:11.936Z,6.79
2023-11-12T07:46:42.250Z,6.76
2023-11-12T07:49:13.431Z,6.55
2023-11-12T07:51:41.800Z,6.53
2023-11-12T07:54:10.271Z,6.62
2023-11-12T07:56:42.168Z,6.66
2023-11-12T07:59:11.159Z,6.91
2023-11-12T08:01:39.800Z,6.80
2023-11-12T08:04:09.518Z,6.94
2023-11-12T08:06:39.216Z,6.73
2023-11-12T08:09:07.843Z,6.80
2023-11-12T08:11:40.685Z,6.56
2023-11-12T08:14:10.110Z,6.74
2023-11-12T08:16:38.757Z,6.82
2023-11-12T08:19:07.286Z,6.80
2023-11-12T08:21:35.555Z,6.88
2023-11-12T08:24:06.712Z,6.90
2023-11-12T08:26:39.803Z,6.77
2023-11-12T08:29:09.067Z,6.92
2023-11-12T08:31:37.956Z,6.81
2023-11-12T08:34:06.950Z,6.86
2023-11-12T08:36:36.152Z,6.88
2023-11-12T08:39:06.209Z,7.03
2023-11-12T08:41:34.408Z,6.77
2023-11-12T08:44:02.640Z,6.86
2023-11-12T08:46:30.880Z,7.06
2023-11-12T08:48:59.141Z,7.20
2023-11-12T08:51:27.433Z,7.18
2023-11-12T08:53:56.200Z,7.27
2023-11-12T08:56:26.974Z,7.45
2023-11-12T08:58:55.204Z,7.68
2023-11-12T09:01:23.400Z,7.72
2023-11-12T09:03:51.665Z,7.46
2023-11-12T09:06:20.217Z,7.48
2023-11-12T09:08:48.743Z,7.62
2023-11-12T09:11:16.951Z,7.50
2023-11-12T09:13:46.616Z,7.56
2023-11-12T09:16:15.101Z,7.65
2023-11-12T09:18:43.401Z,7.66
2023-11-12T09:21:11.652Z,7.56
2023-11-12T09:23:40.422Z,7.93
2023-11-12T09:26:09.238Z,8.13
2023-11-12T09:28:39.295Z,7.97
2023-11-12T09:31:09.177Z,8.05
2023-11-12T09:33:37.494Z,8.33
2023-11-12T09:36:06.644Z,8.59
2023-11-12T09:38:37.187Z,8.43
2023-11-12T09:41:06.150Z,8.43
2023-11-12T09:43:34.861Z,8.33
2023-11-12T09:46:07.922Z,8.27
2023-11-12T09:48:40.892Z,8.27
2023-11-12T09:51:11.087Z,8.22
2023-11-12T09:53:42.263Z,8.23
2023-11-12T09:56:11.167Z,8.28
2023-11-12T09:58:42.316Z,8.55
2023-11-12T10:01:12.435Z,8.72
2023-11-12T10:03:44.187Z,8.77
2023-11-12T10:06:12.940Z,8.72
2023-11-12T10:08:42.554Z,8.77
2023-11-12T10:11:19.153Z,8.70
2023-11-12T10:13:47.948Z,8.64
2023-11-12T10:16:30.658Z,8.74
2023-11-12T10:19:12.771Z,8.74
2023-11-12T10:21:54.928Z,8.59
2023-11-12T10:24:23.961Z,8.63
2023-11-12T10:26:54.554Z,8.59
2023-11-12T10:29:23.414Z,8.47
2023-11-12T10:31:51.839Z,8.89
2023-11-12T10:34:23.536Z,8.75
2023-11-12T10:37:05.442Z,8.90
2023-11-12T10:39:38.365Z,8.85
2023-11-12T10:42:08.634Z,8.72
2023-11-12T10:44:37.601Z,9.01
2023-11-12T10:47:10.479Z,8.94
2023-11-12T10:49:41.962Z,8.80
2023-11-12T10:52:13.053Z,8.73
2023-11-12T10:54:43.239Z,8.81
2023-11-12T10:57:13.550Z,8.89
2023-11-12T10:59:44.211Z,9.02
2023-11-12T11:02:18.451Z,8.94
2023-11-12T11:04:49.026Z,9.05
2023-11-12T11:07:18.537Z,9.15
2023-11-12T11:09:46.896Z,8.99
2023-11-12T11:12:16.003Z,9.27
2023-11-12T11:14:44.234Z,9.33
2023-11-12T11:17:39.149Z,9.29
2023-11-12T11:20:13.120Z,9.27
2023-11-12T11:22:42.689Z,9.18
2023-11-12T11:25:24.156Z,9.08
2023-11-12T11:28:22.375Z,9.12
2023-11-12T11:31:12.887Z,9.14
2023-11-12T11:33:48.006Z,9.16
2023-11-12T11:36:20.599Z,9.27
2023-11-12T11:39:24.910Z,9.55
2023-11-12T11:42:13.187Z,9.62
2023-11-12T11:44:50.404Z,9.91
2023-11-12T11:47:21.071Z,9.78
2023-11-12T11:49:50.557Z,9.88
2023-11-12T11:52:22.098Z,9.37
2023-11-12T11:55:03.972Z,9.53
2023-11-12T11:57:33.208Z,9.23
2023-11-12T12:00:02.484Z,9.26
2023-11-12T12:02:43.477Z,9.07
2023-11-12T12:05:11.799Z,8.94
2023-11-12T12:07:46.123Z,8.98
2023-11-12T12:10:26.702Z,8.86
2023-11-12T12:12:55.780Z,8.86
2023-11-12T12:15:24.141Z,8.71
2023-11-12T12:17:52.476Z,8.62
2023-11-12T12:20:20.762Z,8.57
2023-11-12T12:22:51.087Z,8.54
2023-11-12T12:25:19.701Z,8.65
2023-11-12T12:27:54.877Z,8.70
2023-11-12T12:30:23.169Z,8.80
2023-11-12T12:32:52.763Z,8.63
2023-11-12T12:35:24.861Z,8.53
2023-11-12T12:38:08.167Z,8.48
2023-11-12T12:40:39.430Z,8.52
2023-11-12T12:43:11.460Z,8.61
2023-11-12T12:45:39.819Z,8.60
2023-11-12T12:48:15.861Z,8.69
2023-11-12T12:50:44.260Z,8.65
2023-11-12T12:53:15.103Z,8.70
2023-11-12T12:55:44.954Z,8.73
2023-11-12T12:58:13.796Z,8.86
2023-11-12T13:00:44.387Z,8.83
2023-11-12T13:03:27.596Z,8.81
2023-11-12T13:05:57.841Z,8.79
2023-11-12T13:08:28.824Z,8.89
2023-11-12T13:10:57.033Z,8.63
2023-11-12T13:13:26.561Z,8.75
2023-11-12T13:15:54.851Z,8.57
2023-11-12T13:18:23.633Z,8.60
2023-11-12T13:20:52.654Z,8.44
2023-11-12T13:23:21.359Z,8.07
2023-11-12T13:25:52.632Z,8.12
2023-11-12T13:28:22.265Z,8.27
2023-11-12T13:30:50.509Z,8.06
2023-11-12T13:33:19.277Z,8.05
2023-11-12T13:35:49.088Z,8.04
2023-11-12T13:38:17.576Z,7.81
2023-11-12T13:40:46.002Z,7.91
2023-11-12T13:43:15.826Z,8.08
2023-11-12T13:45:44.300Z,8.20
2023-11-12T13:48:12.780Z,8.31
2023-11-12T13:50:41.107Z,7.90
2023-11-12T13:53:13.232Z,7.88
2023-11-12T13:55:42.855Z,7.84
2023-11-12T13:58:14.370Z,8.04
2023-11-12T14:00:44.280Z,8.13
2023-11-12T14:03:12.745Z,7.96
2023-11-12T14:05:41.091Z,8.08
2023-11-12T14:08:13.009Z,8.11
2023-11-12T14:10:41.731Z,8.09
2023-11-12T14:13:10.611Z,8.16
2023-11-12T14:15:40.276Z,8.20
2023-11-12T14:18:11.296Z,8.09
2023-11-12T14:20:39.760Z,8.18
2023-11-12T14:23:09.508Z,8.12
2023-11-12T14:25:38.794Z,8.12
2023-11-12T14:28:07.732Z,8.16
2023-11-12T14:30:38.507Z,7.91
2023-11-12T14:33:07.682Z,7.56
2023-11-12T14:35:37.238Z,7.60
2023-11-12T14:38:06.001Z,8.02
2023-11-12T14:40:34.356Z,8.00
2023-11-12T14:43:07.979Z,7.78
2023-11-12T14:45:38.072Z,7.90
2023-11-12T14:48:08.467Z,8.01
2023-11-12T14:50:38.814Z,7.92
2023-11-12T14:53:07.239Z,8.05
2023-11-12T14:55:35.754Z,7.92
2023-11-12T14:58:05.946Z,7.98
2023-11-12T15:00:36.438Z,7.91
2023-11-12T15:03:07.391Z,7.76
2023-11-12T15:05:37.206Z,7.75
2023-11-12T15:08:07.104Z,7.69
2023-11-12T15:10:35.323Z,7.52
2023-11-12T15:13:03.787Z,7.51
2023-11-12T15:15:32.031Z,7.48
2023-11-12T15:18:00.313Z,7.48
2023-11-12T15:20:28.722Z,7.43
2023-11-12T15:22:57.112Z,7.43
2023-11-12T15:25:26.832Z,7.29
2023-11-12T15:27:55.207Z,7.32
2023-11-12T15:30:25.741Z,7.23
2023-11-12T15:32:54.689Z,7.16
2023-11-12T15:35:22.901Z,7.13
2023-11-12T15:37:51.114Z,7.12
2023-11-12T15:40:20.986Z,7.10
2023-11-12T15:42:52.998Z,7.13
2023-11-12T15:45:24.713Z,7.13
2023-11-12T15:47:54.086Z,7.15
2023-11-12T15:50:26.865Z,7.18
2023-11-12T15:52:55.206Z,7.24
2023-11-12T15:55:23.549Z,7.20
2023-11-12T15:57:53.368Z,7.06
2023-11-12T16:00:21.706Z,7.07
2023-11-12T16:02:53.063Z,7.16
2023-11-12T16:05:26.688Z,7.13
2023-11-12T16:07:56.659Z,7.08
2023-11-12T16:10:24.876Z,7.19
2023-11-12T16:12:54.927Z,6.99
2023-11-12T16:15:23.273Z,7.12
2023-11-12T16:17:52.744Z,7.13
2023-11-12T16:20:21.210Z,7.19
2023-11-12T16:22:49.454Z,7.27
2023-11-12T16:25:18.036Z,7.23
2023-11-12T16:27:46.365Z,7.26
2023-11-12T16:30:16.288Z,7.20
2023-11-12T16:32:44.679Z,7.20
2023-11-12T16:35:14.473Z,7.22
2023-11-12T16:37:48.544Z,7.14
2023-11-12T16:40:17.489Z,7.22
2023-11-12T16:42:47.125Z,7.05
2023-11-12T16:45:17.884Z,6.83
2023-11-12T16:47:46.675Z,7.08
2023-11-12T16:50:18.032Z,7.07
2023-11-12T16:52:46.402Z,7.06
2023-11-12T16:55:14.861Z,7.08
2023-11-12T16:57:44.798Z,7.19
2023-11-12T17:00:13.841Z,7.21
2023-11-12T17:02:43.585Z,7.12
2023-11-12T17:05:12.332Z,6.99
2023-11-12T17:07:41.054Z,7.11
2023-11-12T17:10:10.747Z,7.12
2023-11-12T17:12:39.146Z,7.12
2023-11-12T17:15:10.984Z,7.23
2023-11-12T17:17:40.365Z,7.08
2023-11-12T17:20:13.901Z,7.29
2023-11-12T17:22:42.672Z,7.28
2023-11-12T17:25:13.044Z,7.03
2023-11-12T17:27:42.393Z,7.03
2023-11-12T17:30:13.296Z,7.06
2023-11-12T17:32:41.771Z,6.82
2023-11-12T17:35:15.645Z,6.97
2023-11-12T17:37:43.953Z,6.98
2023-11-12T17:40:13.238Z,7.11
2023-11-12T17:42:42.750Z,7.12
2023-11-12T17:45:12.829Z,7.09
2023-11-12T17:47:41.659Z,7.17
2023-11-12T17:50:12.106Z,7.19
2023-11-12T17:52:40.450Z,7.10
2023-11-12T17:55:09.704Z,7.14
2023-11-12T17:57:39.108Z,7.19
2023-11-12T18:00:10.305Z,6.92
2023-11-12T18:02:39.583Z,7.24
2023-11-12T18:05:08.266Z,7.26
2023-11-12T18:07:37.836Z,6.96
2023-11-12T18:10:12.332Z,7.03
2023-11-12T18:12:42.296Z,7.05
2023-11-12T18:15:14.090Z,7.07
2023-11-12T18:17:42.471Z,7.17
2023-11-12T18:20:11.722Z,7.08
2023-11-12T18:22:41.224Z,7.27
2023-11-12T18:25:10.336Z,7.17
2023-11-12T18:27:40.333Z,7.21
2023-11-12T18:30:09.736Z,7.15
2023-11-12T18:32:39.112Z,7.20
2023-11-12T18:35:09.180Z,6.82
2023-11-12T18:37:37.398Z,6.59
2023-11-12T18:40:10.243Z,6.79
2023-11-12T18:42:39.819Z,7.01
2023-11-12T18:45:09.071Z,6.93
2023-11-12T18:47:37.261Z,7.12
2023-11-12T18:50:05.875Z,7.08
2023-11-12T18:52:34.083Z,7.11
2023-11-12T18:55:02.292Z,7.06
2023-11-12T18:57:31.825Z,6.73
2023-11-12T19:00:01.702Z,6.63
2023-11-12T19:02:29.995Z,6.57
2023-11-12T19:04:58.598Z,6.13
2023-11-12T19:07:27.966Z,5.96
2023-11-12T19:09:56.165Z,5.88
2023-11-12T19:12:24.660Z,5.82
2023-11-12T19:14:54.633Z,6.03
2023-11-12T19:17:23.481Z,5.95
2023-11-12T19:19:51.806Z,6.04
2023-11-12T19:22:20.342Z,6.07
2023-11-12T19:24:49.014Z,5.99
2023-11-12T19:27:17.872Z,6.07
2023-11-12T19:29:46.110Z,6.12
2023-11-12T19:32:17.628Z,6.19
2023-11-12T19:34:46.375Z,6.36
2023-11-12T19:37:14.696Z,6.38
2023-11-12T19:39:43.063Z,6.38
2023-11-12T19:42:12.196Z,6.38
2023-11-12T19:44:40.524Z,6.40
2023-11-12T19:47:09.484Z,6.32
2023-11-12T19:49:39.190Z,6.38
2023-11-12T19:52:07.840Z,6.32
2023-11-12T19:54:42.035Z,6.14
2023-11-12T19:57:11.236Z,6.02
2023-11-12T19:59:41.141Z,6.11
2023-11-12T20:02:10.915Z,6.04
2023-11-12T20:04:40.961Z,5.97
2023-11-12T20:07:09.352Z,5.93
2023-11-12T20:09:39.442Z,5.87
2023-11-12T20:12:08.446Z,5.78
2023-11-12T20:14:38.424Z,5.72
2023-11-12T20:17:11.194Z,5.75
2023-11-12T20:19:42.655Z,5.67
2023-11-12T20:22:10.890Z,5.20
2023-11-12T20:24:39.470Z,5.49
2023-11-12T20:27:10.180Z,5.57
2023-11-12T20:29:39.717Z,5.63
2023-11-12T20:32:15.302Z,5.70
2023-11-12T20:34:46.217Z,5.58
2023-11-12T20:37:16.944Z,5.53
2023-11-12T20:39:44.842Z,5.50
2023-11-12T20:42:14.796Z,5.53
2023-11-12T20:44:43.375Z,5.39
2023-11-12T20:47:13.681Z,5.42
2023-11-12T20:49:45.617Z,5.37
2023-11-12T20:52:13.989Z,5.32
2023-11-12T20:54:42.284Z,5.29
2023-11-12T20:57:10.517Z,5.19
2023-11-12T20:59:38.752Z,5.09
2023-11-12T21:02:14.642Z,5.09
2023-11-12T21:04:51.812Z,5.01
2023-11-12T21:07:21.141Z,4.96
2023-11-12T21:09:51.108Z,4.90
2023-11-12T21:12:22.184Z,4.86
2023-11-12T21:14:50.789Z,4.82
2023-11-12T21:17:19.223Z,4.74
2023-11-12T21:19:48.005Z,4.71
2023-11-12T21:22:17.578Z,4.68
2023-11-12T21:24:45.867Z,4.68
2023-11-12T21:27:14.103Z,4.64
2023-11-12T21:29:42.642Z,4.57
2023-11-12T21:32:11.030Z,4.59
2023-11-12T21:34:39.399Z,4.61
2023-11-12T21:37:08.172Z,4.58
2023-11-12T21:39:38.218Z,4.58
2023-11-12T21:42:07.224Z,4.41
2023-11-12T21:44:36.465Z,4.40
2023-11-12T21:47:05.302Z,4.45
2023-11-12T21:49:33.761Z,4.41
2023-11-12T21:52:03.115Z,4.47
2023-11-12T21:54:31.674Z,4.49
2023-11-12T21:57:01.708Z,4.46
2023-11-12T21:59:32.128Z,4.44
2023-11-12T22:02:02.960Z,4.45
2023-11-12T22:04:31.285Z,4.42
2023-11-12T22:06:59.928Z,4.46
2023-11-12T22:09:28.277Z,4.44
2023-11-12T22:11:56.556Z,4.43
2023-11-12T22:14:26.080Z,4.43
2023-11-12T22:16:54.462Z,4.35
2023-11-12T22:19:22.667Z,4.40
2023-11-12T22:21:50.884Z,4.43
2023-11-12T22:24:19.540Z,4.34
2023-11-12T22:26:47.720Z,4.31
2023-11-12T22:29:16.006Z,4.27
2023-11-12T22:31:46.540Z,4.31
2023-11-12T22:34:15.978Z,4.34
2023-11-12T22:36:44.512Z,4.33
2023-11-12T22:39:13.341Z,4.30
2023-11-12T22:41:41.910Z,4.36
2023-11-12T22:44:11.428Z,4.40
2023-11-12T22:46:39.651Z,4.44
2023-11-12T22:49:09.224Z,4.45
2023-11-12T22:51:38.615Z,4.53
2023-11-12T22:54:07.037Z,4.55
2023-11-12T22:56:35.232Z,4.69
2023-11-12T22:59:03.535Z,4.67
2023-11-12T23:01:31.857Z,4.65
2023-11-12T23:04:00.130Z,4.69
2023-11-12T23:06:29.694Z,4.73
2023-11-12T23:09:06.676Z,4.65
2023-11-12T23:11:35.280Z,4.74
2023-11-12T23:14:05.252Z,4.75
2023-11-12T23:16:33.728Z,4.72
2023-11-12T23:19:02.356Z,4.72
2023-11-12T23:21:31.909Z,4.71
2023-11-12T23:24:00.145Z,4.61
2023-11-12T23:26:28.623Z,4.67
2023-11-12T23:28:56.806Z,4.71
2023-11-12T23:31:25.309Z,4.65
2023-11-12T23:33:54.296Z,4.74
2023-11-12T23:36:22.707Z,4.72
2023-11-12T23:38:52.540Z,4.75
2023-11-12T23:41:20.960Z,4.59
2023-11-12T23:43:49.672Z,4.63
2023-11-12T23:46:18.510Z,4.71
2023-11-12T23:48:46.799Z,4.80
2023-11-12T23:51:15.784Z,4.91
2023-11-12T23:53:45.352Z,4.87
2023-11-12T23:56:17.826Z,4.94
2023-11-12T23:58:46.196Z,4.93
